createdAt,value
2017-08-23T00:00:49.609Z,22.14
2017-08-23T00:01:59.268Z,22.02
2017-08-23T00:03:08.592Z,21.98
2017-08-23T00:04:18.838Z,21.98
2017-08-23T00:05:29.075Z,22
2017-08-23T00:06:39.023Z,21.94
2017-08-23T00:07:48.960Z,22.03
2017-08-23T00:08:58.894Z,21.91
2017-08-23T00:10:08.817Z,21.96
2017-08-23T00:11:19.045Z,21.9
2017-08-23T00:12:28.968Z,21.86
2017-08-23T00:13:38.281Z,21.94
2017-08-23T00:14:48.509Z,22.03
2017-08-23T00:15:58.470Z,21.92
2017-08-23T00:17:08.403Z,22
2017-08-23T00:18:18.357Z,21.94
2017-08-23T00:19:28.266Z,21.86
2017-08-23T00:20:38.188Z,21.91
2017-08-23T00:21:48.126Z,21.86
2017-08-23T00:22:57.729Z,21.92
2017-08-23T00:24:07.361Z,21.9
2017-08-23T00:25:16.686Z,21.77
2017-08-23T00:26:26.593Z,21.84
2017-08-23T00:27:36.835Z,21.8
2017-08-23T00:28:47.067Z,21.75
2017-08-23T00:29:57.006Z,21.74
2017-08-23T00:31:06.622Z,21.79
2017-08-23T00:32:16.541Z,21.75
2017-08-23T00:33:26.162Z,21.72
2017-08-23T00:34:36.409Z,21.74
2017-08-23T00:35:46.050Z,21.65
2017-08-23T00:36:56.284Z,21.67
2017-08-23T00:38:06.253Z,21.65
2017-08-23T00:39:15.868Z,21.71
2017-08-23T00:40:25.196Z,21.69
2017-08-23T00:41:35.120Z,21.74
2017-08-23T00:42:44.749Z,21.65
2017-08-23T00:43:54.754Z,21.69
2017-08-23T00:45:04.682Z,21.72
2017-08-23T00:46:14.612Z,21.65
2017-08-23T00:47:24.846Z,21.64
2017-08-23T00:48:35.065Z,21.64
2017-08-23T00:49:45.300Z,21.67
2017-08-23T00:50:55.211Z,21.62
2017-08-23T00:52:05.128Z,21.67
2017-08-23T00:53:14.444Z,21.71
2017-08-23T00:54:25.051Z,21.69
2017-08-23T00:55:35.278Z,21.62
2017-08-23T00:56:45.501Z,21.67
2017-08-23T00:57:55.107Z,21.72
2017-08-23T00:59:05.018Z,21.65
2017-08-23T01:00:15.243Z,21.68
2017-08-23T01:01:25.209Z,21.64
2017-08-23T01:02:35.468Z,21.64
2017-08-23T01:03:45.381Z,21.68
2017-08-23T01:04:55.620Z,21.62
2017-08-23T01:06:05.266Z,21.62
2017-08-23T01:07:14.274Z,21.69
2017-08-23T01:08:24.209Z,21.59
2017-08-23T01:09:34.126Z,21.56
2017-08-23T01:10:44.361Z,21.58
2017-08-23T01:11:53.970Z,21.59
2017-08-23T01:13:04.199Z,21.54
2017-08-23T01:14:14.127Z,21.59
2017-08-23T01:15:24.338Z,21.53
2017-08-23T01:16:34.566Z,21.52
2017-08-23T01:17:44.642Z,21.54
2017-08-23T01:18:54.552Z,21.61
2017-08-23T01:20:05.144Z,21.56
2017-08-23T01:21:14.143Z,21.56
2017-08-23T01:22:24.374Z,21.56
2017-08-23T01:23:34.616Z,21.54
2017-08-23T01:24:44.252Z,21.61
2017-08-23T01:25:53.887Z,21.5
2017-08-23T01:27:04.125Z,21.44
2017-08-23T01:28:14.359Z,21.52
2017-08-23T01:29:24.583Z,21.4
2017-08-23T01:30:34.501Z,21.46
2017-08-23T01:31:44.762Z,21.44
2017-08-23T01:32:54.712Z,21.42
2017-08-23T01:34:04.358Z,21.37
2017-08-23T01:35:14.284Z,21.42
2017-08-23T01:36:24.211Z,21.42
2017-08-23T01:37:33.832Z,21.38
2017-08-23T01:38:44.076Z,21.4
2017-08-23T01:39:54.010Z,21.42
2017-08-23T01:41:03.943Z,21.49
2017-08-23T01:42:14.178Z,21.49
2017-08-23T01:43:23.780Z,21.47
2017-08-23T01:44:34.023Z,21.5
2017-08-23T01:45:44.237Z,21.5
2017-08-23T01:46:54.146Z,21.44
2017-08-23T01:48:03.468Z,21.52
2017-08-23T01:49:12.778Z,21.49
2017-08-23T01:50:22.392Z,21.44
2017-08-23T01:51:32.307Z,21.47
2017-08-23T01:52:42.551Z,21.44
2017-08-23T01:53:52.778Z,21.43
2017-08-23T01:55:02.696Z,21.47
2017-08-23T01:56:12.656Z,21.49
2017-08-23T01:57:22.877Z,21.47
2017-08-23T01:58:32.817Z,21.44
2017-08-23T01:59:43.090Z,21.49
2017-08-23T02:00:53.305Z,21.42
2017-08-23T02:02:03.540Z,21.47
2017-08-23T02:03:13.164Z,21.42
2017-08-23T02:04:23.097Z,21.49
2017-08-23T02:05:32.403Z,21.42
2017-08-23T02:06:42.643Z,21.4
2017-08-23T02:07:52.255Z,21.37
2017-08-23T02:09:02.165Z,21.44
2017-08-23T02:10:12.082Z,21.4
2017-08-23T02:11:21.379Z,21.38
2017-08-23T02:12:31.319Z,21.44
2017-08-23T02:13:40.625Z,21.27
2017-08-23T02:14:50.919Z,21.38
2017-08-23T02:16:00.248Z,21.27
2017-08-23T02:17:10.167Z,21.27
2017-08-23T02:18:20.757Z,21.24
2017-08-23T02:19:30.677Z,21.24
2017-08-23T02:20:40.302Z,21.24
2017-08-23T02:21:49.903Z,21.25
2017-08-23T02:22:59.263Z,21.25
2017-08-23T02:24:09.196Z,21.24
2017-08-23T02:25:18.815Z,21.22
2017-08-23T02:26:28.426Z,21.14
2017-08-23T02:27:38.375Z,21.13
2017-08-23T02:28:48.313Z,21.13
2017-08-23T02:29:58.536Z,21.12
2017-08-23T02:31:08.799Z,21.09
2017-08-23T02:32:18.108Z,21.09
2017-08-23T02:33:28.027Z,21.12
2017-08-23T02:34:37.336Z,21.01
2017-08-23T02:35:47.257Z,20.97
2017-08-23T02:36:56.882Z,20.99
2017-08-23T02:38:06.501Z,20.99
2017-08-23T02:39:16.430Z,20.99
2017-08-23T02:40:26.647Z,20.98
2017-08-23T02:41:36.876Z,20.95
2017-08-23T02:42:46.190Z,20.92
2017-08-23T02:43:55.810Z,20.94
2017-08-23T02:45:05.127Z,20.99
2017-08-23T02:46:15.366Z,20.99
2017-08-23T02:47:25.298Z,20.94
2017-08-23T02:48:35.269Z,21.06
2017-08-23T02:49:45.192Z,21.06
2017-08-23T02:50:54.816Z,21.07
2017-08-23T02:52:05.062Z,21.1
2017-08-23T02:53:14.683Z,21.06
2017-08-23T02:54:24.591Z,21.03
2017-08-23T02:55:34.541Z,21.07
2017-08-23T02:56:44.460Z,21.06
2017-08-23T02:57:54.695Z,21.07
2017-08-23T02:59:04.627Z,21.09
2017-08-23T03:00:14.245Z,21.07
2017-08-23T03:01:24.488Z,21.09
2017-08-23T03:02:34.413Z,21.03
2017-08-23T03:03:44.659Z,21.06
2017-08-23T03:04:54.578Z,21.09
2017-08-23T03:06:03.916Z,21.03
2017-08-23T03:07:13.555Z,21.07
2017-08-23T03:08:23.787Z,20.95
2017-08-23T03:09:33.111Z,21.07
2017-08-23T03:10:43.034Z,21.06
2017-08-23T03:11:52.951Z,21.04
2017-08-23T03:13:02.560Z,20.97
2017-08-23T03:14:12.173Z,21.03
2017-08-23T03:15:22.414Z,21.07
2017-08-23T03:16:32.334Z,20.94
2017-08-23T03:17:42.574Z,20.99
2017-08-23T03:18:52.502Z,20.99
2017-08-23T03:20:02.103Z,20.95
2017-08-23T03:21:11.719Z,20.92
2017-08-23T03:22:21.646Z,20.94
2017-08-23T03:23:31.874Z,21.03
2017-08-23T03:24:41.511Z,21.01
2017-08-23T03:25:51.150Z,20.98
2017-08-23T03:27:01.089Z,20.91
2017-08-23T03:28:10.727Z,20.92
2017-08-23T03:29:20.972Z,20.97
2017-08-23T03:30:30.901Z,20.92
2017-08-23T03:31:40.825Z,20.88
2017-08-23T03:32:51.065Z,20.89
2017-08-23T03:34:01.292Z,20.79
2017-08-23T03:35:11.521Z,20.8
2017-08-23T03:36:21.133Z,20.84
2017-08-23T03:37:31.058Z,20.8
2017-08-23T03:38:40.968Z,20.8
2017-08-23T03:39:51.207Z,20.85
2017-08-23T03:41:00.512Z,20.8
2017-08-23T03:42:10.674Z,20.76
2017-08-23T03:43:20.612Z,20.8
2017-08-23T03:44:30.528Z,20.79
2017-08-23T03:45:40.444Z,20.74
2017-08-23T03:46:50.664Z,20.77
2017-08-23T03:48:00.272Z,20.79
2017-08-23T03:49:09.900Z,20.79
2017-08-23T03:50:19.511Z,20.79
2017-08-23T03:51:29.428Z,20.66
2017-08-23T03:52:39.671Z,20.67
2017-08-23T03:53:49.917Z,20.76
2017-08-23T03:55:00.141Z,20.69
2017-08-23T03:56:10.082Z,20.7
2017-08-23T03:59:52.670Z,20.69
2017-08-23T04:01:02.919Z,20.66
2017-08-23T04:02:13.139Z,20.67
2017-08-23T04:03:23.385Z,20.69
2017-08-23T04:04:33.607Z,20.69
2017-08-23T04:05:43.538Z,20.66
2017-08-23T04:06:53.456Z,20.7
2017-08-23T04:08:03.386Z,20.72
2017-08-23T04:09:13.630Z,20.72
2017-08-23T04:10:23.875Z,20.69
2017-08-23T04:11:33.812Z,20.67
2017-08-23T04:12:43.437Z,20.67
2017-08-23T04:13:53.671Z,20.59
2017-08-23T04:15:03.619Z,20.66
2017-08-23T04:16:13.894Z,20.62
2017-08-23T04:17:23.510Z,20.67
2017-08-23T04:18:33.444Z,20.62
2017-08-23T04:19:43.070Z,20.54
2017-08-23T04:20:52.988Z,20.69
2017-08-23T04:22:03.215Z,20.69
2017-08-23T04:23:13.120Z,20.7
2017-08-23T04:24:23.350Z,20.67
2017-08-23T04:25:32.671Z,20.64
2017-08-23T04:26:42.589Z,20.67
2017-08-23T04:27:52.816Z,20.7
2017-08-23T04:29:02.732Z,20.69
2017-08-23T04:30:12.663Z,20.67
2017-08-23T04:31:22.269Z,20.69
2017-08-23T04:32:30.965Z,20.69
2017-08-23T04:33:41.227Z,20.72
2017-08-23T04:34:50.835Z,20.7
2017-08-23T04:36:00.467Z,20.7
2017-08-23T04:37:10.408Z,20.67
2017-08-23T04:38:20.322Z,20.69
2017-08-23T04:39:29.924Z,20.62
2017-08-23T04:40:39.544Z,20.61
2017-08-23T04:41:48.860Z,20.54
2017-08-23T04:42:59.115Z,20.59
2017-08-23T04:44:09.074Z,20.69
2017-08-23T04:45:19.007Z,20.62
2017-08-23T04:46:28.619Z,20.64
2017-08-23T04:47:38.839Z,20.64
2017-08-23T04:48:48.761Z,20.66
2017-08-23T04:49:59.013Z,20.66
2017-08-23T04:51:08.935Z,20.59
2017-08-23T04:52:18.564Z,20.67
2017-08-23T04:53:28.487Z,20.64
2017-08-23T04:54:38.418Z,20.64
2017-08-23T04:55:48.678Z,20.64
2017-08-23T04:56:58.592Z,20.62
2017-08-23T04:58:08.225Z,20.61
2017-08-23T04:59:18.141Z,20.61
2017-08-23T05:00:27.756Z,20.66
2017-08-23T05:02:03.662Z,20.62
2017-08-23T05:03:13.628Z,20.57
2017-08-23T05:04:23.854Z,20.59
2017-08-23T05:05:33.467Z,20.57
2017-08-23T05:06:43.686Z,20.54
2017-08-23T05:07:53.296Z,20.59
2017-08-23T05:09:03.198Z,20.61
2017-08-23T05:10:13.421Z,20.66
2017-08-23T05:11:23.645Z,20.59
2017-08-23T05:12:33.281Z,20.72
2017-08-23T05:13:42.901Z,20.74
2017-08-23T05:14:53.261Z,20.74
2017-08-23T05:16:03.494Z,20.67
2017-08-23T05:17:13.413Z,20.7
2017-08-23T05:18:23.352Z,20.67
2017-08-23T05:19:33.328Z,20.69
2017-08-23T05:20:43.746Z,20.73
2017-08-23T05:21:53.051Z,20.72
2017-08-23T05:23:03.288Z,20.72
2017-08-23T05:24:13.504Z,20.72
2017-08-23T05:25:23.731Z,20.72
2017-08-23T05:26:33.705Z,20.82
2017-08-23T05:27:43.937Z,20.77
2017-08-23T05:28:53.249Z,20.84
2017-08-23T05:30:02.542Z,20.79
2017-08-23T05:31:12.197Z,20.84
2017-08-23T05:32:22.566Z,20.87
2017-08-23T05:33:32.163Z,20.82
2017-08-23T05:34:42.064Z,20.95
2017-08-23T05:35:52.295Z,20.94
2017-08-23T05:37:02.520Z,21.07
2017-08-23T05:38:12.796Z,21.14
2017-08-23T05:39:22.723Z,21.22
2017-08-23T05:40:32.649Z,21.43
2017-08-23T05:41:42.877Z,21.43
2017-08-23T05:42:52.780Z,21.49
2017-08-23T05:44:03.341Z,21.59
2017-08-23T05:45:13.292Z,21.61
2017-08-23T05:46:23.220Z,21.79
2017-08-23T05:47:33.459Z,21.79
2017-08-23T05:48:43.389Z,21.77
2017-08-23T05:49:53.923Z,21.92
2017-08-23T05:51:03.839Z,21.88
2017-08-23T05:52:13.779Z,21.92
2017-08-23T05:53:23.082Z,21.94
2017-08-23T05:54:33.319Z,22.15
2017-08-23T05:55:43.721Z,22.31
2017-08-23T05:56:53.639Z,22.46
2017-08-23T05:58:03.597Z,22.55
2017-08-23T05:59:13.225Z,22.75
2017-08-23T06:00:23.468Z,22.8
2017-08-23T06:01:33.865Z,22.83
2017-08-23T06:02:43.805Z,22.8
2017-08-23T06:03:53.724Z,22.73
2017-08-23T06:05:03.965Z,22.68
2017-08-23T06:06:13.265Z,22.7
2017-08-23T06:07:23.177Z,22.6
2017-08-23T06:08:33.108Z,22.57
2017-08-23T06:09:43.336Z,22.51
2017-08-23T06:10:53.601Z,22.39
2017-08-23T06:12:03.527Z,22.39
2017-08-23T06:13:13.840Z,22.27
2017-08-23T06:14:24.068Z,22.22
2017-08-23T06:15:33.994Z,22.14
2017-08-23T06:16:44.219Z,22.06
2017-08-23T06:17:54.145Z,21.96
2017-08-23T06:19:04.082Z,21.9
2017-08-23T06:20:14.317Z,21.9
2017-08-23T06:21:23.944Z,21.92
2017-08-23T06:22:32.947Z,21.9
2017-08-23T06:23:42.865Z,21.74
2017-08-23T06:24:53.213Z,21.86
2017-08-23T06:26:03.153Z,21.83
2017-08-23T06:27:13.380Z,21.75
2017-08-23T06:28:23.331Z,21.69
2017-08-23T06:29:33.260Z,21.68
2017-08-23T06:30:43.351Z,21.59
2017-08-23T06:31:52.978Z,21.64
2017-08-23T06:33:03.208Z,21.62
2017-08-23T06:34:13.455Z,21.59
2017-08-23T06:35:22.774Z,21.5
2017-08-23T06:36:33.048Z,21.52
2017-08-23T06:37:43.293Z,21.58
2017-08-23T06:38:53.216Z,21.49
2017-08-23T06:40:02.829Z,21.4
2017-08-23T06:41:12.749Z,21.44
2017-08-23T06:42:22.810Z,21.42
2017-08-23T06:43:32.735Z,21.35
2017-08-23T06:44:42.984Z,21.37
2017-08-23T06:45:53.224Z,21.37
2017-08-23T06:47:03.165Z,21.42
2017-08-23T06:48:13.237Z,21.34
2017-08-23T06:49:22.917Z,21.38
2017-08-23T06:50:32.548Z,21.34
2017-08-23T06:51:42.180Z,21.43
2017-08-23T06:52:52.424Z,21.49
2017-08-23T06:54:02.193Z,21.58
2017-08-23T06:55:12.146Z,21.52
2017-08-23T06:56:22.070Z,21.65
2017-08-23T06:57:31.981Z,21.65
2017-08-23T06:58:42.227Z,21.74
2017-08-23T06:59:52.212Z,21.77
2017-08-23T07:01:02.452Z,21.79
2017-08-23T07:02:12.086Z,21.92
2017-08-23T07:03:22.343Z,21.91
2017-08-23T07:04:32.601Z,21.94
2017-08-23T07:05:42.672Z,21.99
2017-08-23T07:06:52.610Z,21.96
2017-08-23T07:08:02.546Z,21.98
2017-08-23T07:09:12.483Z,22.1
2017-08-23T07:10:22.708Z,22.06
2017-08-23T07:11:32.774Z,22.14
2017-08-23T07:12:42.386Z,22.18
2017-08-23T07:13:52.645Z,22.2
2017-08-23T07:15:02.262Z,22.17
2017-08-23T07:16:12.513Z,22.1
2017-08-23T07:17:21.925Z,22.24
2017-08-23T07:18:31.842Z,22.2
2017-08-23T07:19:41.767Z,22.25
2017-08-23T07:20:51.986Z,22.2
2017-08-23T07:22:01.905Z,22.22
2017-08-23T07:23:12.182Z,22.22
2017-08-23T07:24:21.802Z,22.24
2017-08-23T07:25:31.734Z,22.3
2017-08-23T07:26:41.658Z,22.3
2017-08-23T07:27:51.591Z,22.33
2017-08-23T07:29:00.897Z,22.4
2017-08-23T07:30:10.533Z,22.43
2017-08-23T07:31:20.464Z,22.54
2017-08-23T07:32:30.384Z,22.46
2017-08-23T07:33:40.698Z,22.54
2017-08-23T07:34:50.621Z,22.58
2017-08-23T07:36:00.565Z,22.7
2017-08-23T07:37:10.503Z,22.58
2017-08-23T07:38:20.120Z,22.75
2017-08-23T07:39:30.047Z,22.97
2017-08-23T07:40:39.817Z,23.35
2017-08-23T07:41:49.424Z,23.9
2017-08-23T07:42:59.339Z,24.57
2017-08-23T07:44:09.572Z,24.95
2017-08-23T07:45:19.543Z,25.5
2017-08-23T07:46:29.570Z,25.9
2017-08-23T07:47:39.206Z,26.23
2017-08-23T07:48:49.146Z,26.63
2017-08-23T07:49:59.097Z,27
2017-08-23T07:51:09.023Z,27.21
2017-08-23T07:52:19.404Z,27.59
2017-08-23T07:53:29.021Z,27.87
2017-08-23T07:54:38.478Z,28.04
2017-08-23T07:55:48.723Z,28.29
2017-08-23T07:56:58.756Z,28.43
2017-08-23T07:58:08.509Z,28.59
2017-08-23T07:59:18.147Z,28.66
2017-08-23T08:00:27.446Z,28.8
2017-08-23T08:01:37.675Z,28.92
2017-08-23T08:02:47.653Z,29.05
2017-08-23T08:03:57.729Z,29.05
2017-08-23T08:05:07.659Z,29.18
2017-08-23T08:06:17.583Z,28.92
2017-08-23T08:07:27.823Z,28.56
2017-08-23T08:08:37.752Z,28.33
2017-08-23T08:09:47.718Z,27.99
2017-08-23T08:10:57.637Z,27.63
2017-08-23T08:12:07.575Z,27.25
2017-08-23T08:13:17.483Z,27.07
2017-08-23T08:14:27.421Z,26.82
2017-08-23T08:15:37.647Z,26.65
2017-08-23T08:16:47.874Z,26.44
2017-08-23T08:17:57.181Z,26.25
2017-08-23T08:19:06.481Z,25.97
2017-08-23T08:20:16.726Z,25.9
2017-08-23T08:21:27.306Z,25.76
2017-08-23T08:22:37.248Z,25.62
2017-08-23T08:23:47.178Z,25.54
2017-08-23T08:24:56.789Z,25.42
2017-08-23T08:26:06.720Z,25.39
2017-08-23T08:27:16.530Z,25.27
2017-08-23T08:28:26.155Z,25.21
2017-08-23T08:29:35.448Z,25.09
2017-08-23T08:30:45.370Z,25
2017-08-23T08:31:55.627Z,24.96
2017-08-23T08:33:05.409Z,24.83
2017-08-23T08:34:15.029Z,24.77
2017-08-23T08:35:24.982Z,24.8
2017-08-23T08:36:34.930Z,24.71
2017-08-23T08:37:44.542Z,24.65
2017-08-23T08:38:54.917Z,24.57
2017-08-23T08:40:05.149Z,24.49
2017-08-23T08:41:15.107Z,24.52
2017-08-23T08:42:25.036Z,24.49
2017-08-23T08:43:35.267Z,24.39
2017-08-23T08:44:45.351Z,24.43
2017-08-23T08:45:54.991Z,24.37
2017-08-23T08:47:04.927Z,24.39
2017-08-23T08:48:15.170Z,24.34
2017-08-23T08:49:24.779Z,24.3
2017-08-23T08:50:34.386Z,24.32
2017-08-23T08:51:44.342Z,24.27
2017-08-23T08:52:53.660Z,24.27
2017-08-23T08:54:03.914Z,24.2
2017-08-23T08:55:13.837Z,24.15
2017-08-23T08:56:23.917Z,24.08
2017-08-23T08:57:33.565Z,24.03
2017-08-23T08:58:43.489Z,24.09
2017-08-23T08:59:53.701Z,24.05
2017-08-23T09:01:03.612Z,24.05
2017-08-23T09:02:13.685Z,23.91
2017-08-23T09:03:23.903Z,23.95
2017-08-23T09:04:33.839Z,23.94
2017-08-23T09:05:42.831Z,23.93
2017-08-23T09:06:52.443Z,23.94
2017-08-23T09:08:02.826Z,23.94
2017-08-23T09:09:13.067Z,23.84
2017-08-23T09:10:23.061Z,23.83
2017-08-23T09:11:32.703Z,23.9
2017-08-23T09:12:42.321Z,23.9
2017-08-23T09:13:52.008Z,23.87
2017-08-23T09:15:01.961Z,23.83
2017-08-23T09:16:11.895Z,23.88
2017-08-23T09:17:21.842Z,23.85
2017-08-23T09:18:31.187Z,23.78
2017-08-23T09:19:40.863Z,23.79
2017-08-23T09:20:51.127Z,23.69
2017-08-23T09:22:01.094Z,23.73
2017-08-23T09:23:10.426Z,23.79
2017-08-23T09:24:20.728Z,23.73
2017-08-23T09:25:30.752Z,23.72
2017-08-23T09:26:40.974Z,23.8
2017-08-23T09:27:49.971Z,23.8
2017-08-23T09:28:59.579Z,23.8
2017-08-23T09:30:09.199Z,23.7
2017-08-23T09:31:19.425Z,23.76
2017-08-23T09:32:29.069Z,23.76
2017-08-23T09:33:39.026Z,23.76
2017-08-23T09:34:49.253Z,23.79
2017-08-23T09:35:59.210Z,23.69
2017-08-23T09:37:09.297Z,23.68
2017-08-23T09:38:18.911Z,23.72
2017-08-23T09:39:28.886Z,23.63
2017-08-23T09:40:38.487Z,23.72
2017-08-23T09:41:48.729Z,23.72
2017-08-23T09:42:59.122Z,23.75
2017-08-23T09:44:09.064Z,23.65
2017-08-23T09:45:18.688Z,23.63
2017-08-23T09:46:28.612Z,23.63
2017-08-23T09:47:38.535Z,23.65
2017-08-23T09:48:49.118Z,23.63
2017-08-23T09:49:58.761Z,23.69
2017-08-23T09:51:08.377Z,23.66
2017-08-23T09:52:17.694Z,23.7
2017-08-23T09:53:27.925Z,23.69
2017-08-23T09:54:38.206Z,23.65
2017-08-23T09:55:48.423Z,23.68
2017-08-23T09:56:57.849Z,23.68
2017-08-23T09:58:07.834Z,23.66
2017-08-23T09:59:17.446Z,23.69
2017-08-23T10:00:27.400Z,23.68
2017-08-23T10:01:37.351Z,23.66
2017-08-23T10:02:46.674Z,23.6
2017-08-23T10:03:56.935Z,23.61
2017-08-23T10:05:06.586Z,23.61
2017-08-23T10:06:16.703Z,23.66
2017-08-23T10:07:26.329Z,23.63
2017-08-23T10:08:36.243Z,23.63
2017-08-23T10:09:46.174Z,23.69
2017-08-23T10:10:55.844Z,23.63
2017-08-23T10:12:06.089Z,23.57
2017-08-23T10:13:15.704Z,23.61
2017-08-23T10:14:25.087Z,23.69
2017-08-23T10:15:34.725Z,23.68
2017-08-23T10:16:45.121Z,23.66
2017-08-23T10:17:54.883Z,23.68
2017-08-23T10:19:04.527Z,23.68
2017-08-23T10:20:14.195Z,23.63
2017-08-23T10:21:24.172Z,23.69
2017-08-23T10:22:34.441Z,23.65
2017-08-23T10:23:44.692Z,23.7
2017-08-23T10:24:54.932Z,23.6
2017-08-23T10:26:04.875Z,23.68
2017-08-23T10:27:14.816Z,23.68
2017-08-23T10:28:24.745Z,23.63
2017-08-23T10:29:34.807Z,23.66
2017-08-23T10:30:45.055Z,23.63
2017-08-23T10:31:54.975Z,23.61
2017-08-23T10:33:05.215Z,23.69
2017-08-23T10:34:15.197Z,23.61
2017-08-23T10:35:25.131Z,23.65
2017-08-23T10:36:35.378Z,23.68
2017-08-23T10:37:45.306Z,23.65
2017-08-23T10:38:54.621Z,23.69
2017-08-23T10:40:03.985Z,23.65
2017-08-23T10:41:14.392Z,23.65
2017-08-23T10:42:24.321Z,23.76
2017-08-23T10:43:33.649Z,23.63
2017-08-23T10:44:43.878Z,23.66
2017-08-23T10:45:53.485Z,23.6
2017-08-23T10:47:04.094Z,23.68
2017-08-23T10:48:13.737Z,23.63
2017-08-23T10:49:23.692Z,23.65
2017-08-23T10:50:33.349Z,23.68
2017-08-23T10:51:43.333Z,23.66
2017-08-23T10:52:53.356Z,23.65
2017-08-23T10:54:03.323Z,23.7
2017-08-23T10:55:13.063Z,23.75
2017-08-23T10:56:22.737Z,23.72
2017-08-23T10:57:32.717Z,23.69
2017-08-23T10:58:42.696Z,23.63
2017-08-23T10:59:51.782Z,23.72
2017-08-23T11:01:01.743Z,23.63
2017-08-23T11:02:11.759Z,23.75
2017-08-23T11:03:21.738Z,23.7
2017-08-23T11:04:31.240Z,23.73
2017-08-23T11:05:40.874Z,23.68
2017-08-23T11:06:50.866Z,23.68
2017-08-23T11:08:00.921Z,23.66
2017-08-23T11:09:11.206Z,23.73
2017-08-23T11:10:21.797Z,23.73
2017-08-23T11:11:31.746Z,23.63
2017-08-23T11:12:41.690Z,23.75
2017-08-23T11:13:51.973Z,23.7
2017-08-23T11:15:01.644Z,23.76
2017-08-23T11:16:12.046Z,23.73
2017-08-23T11:17:21.354Z,23.68
2017-08-23T11:18:31.304Z,23.68
2017-08-23T11:19:41.536Z,23.69
2017-08-23T11:20:51.180Z,23.73
2017-08-23T11:22:01.330Z,23.76
2017-08-23T11:23:11.301Z,23.69
2017-08-23T11:24:21.347Z,23.68
2017-08-23T11:25:31.744Z,23.73
2017-08-23T11:26:41.696Z,23.7
2017-08-23T11:27:51.018Z,23.7
2017-08-23T11:29:00.376Z,23.7
2017-08-23T11:30:10.308Z,23.69
2017-08-23T11:31:20.582Z,23.7
2017-08-23T11:32:30.522Z,23.7
2017-08-23T11:33:40.032Z,23.75
2017-08-23T11:34:49.423Z,23.73
2017-08-23T11:35:59.393Z,23.66
2017-08-23T11:37:08.722Z,23.78
2017-08-23T11:38:18.347Z,23.72
2017-08-23T11:39:28.069Z,23.75
2017-08-23T11:40:37.786Z,23.73
2017-08-23T11:41:48.048Z,23.72
2017-08-23T11:42:58.278Z,23.7
2017-08-23T11:44:07.898Z,23.8
2017-08-23T11:45:18.481Z,23.84
2017-08-23T11:46:28.398Z,23.8
2017-08-23T11:47:38.313Z,23.78
2017-08-23T11:48:47.932Z,23.75
2017-08-23T11:49:58.179Z,23.78
2017-08-23T11:51:07.972Z,23.7
2017-08-23T11:52:17.895Z,23.84
2017-08-23T11:53:27.822Z,23.72
2017-08-23T11:54:37.116Z,23.8
2017-08-23T11:55:47.040Z,23.87
2017-08-23T11:56:57.591Z,23.87
2017-08-23T11:58:07.533Z,23.78
2017-08-23T11:59:17.769Z,23.83
2017-08-23T12:00:28.225Z,23.87
2017-08-23T12:01:38.200Z,23.8
2017-08-23T12:02:47.742Z,23.87
2017-08-23T12:03:57.740Z,23.84
2017-08-23T12:05:07.373Z,23.78
2017-08-23T12:06:17.007Z,23.79
2017-08-23T12:07:26.633Z,23.87
2017-08-23T12:08:36.485Z,23.87
2017-08-23T12:09:46.394Z,23.87
2017-08-23T12:10:56.005Z,23.85
2017-08-23T12:12:05.312Z,23.95
2017-08-23T12:13:15.569Z,23.83
2017-08-23T12:14:25.229Z,23.85
2017-08-23T12:15:34.593Z,23.83
2017-08-23T12:16:44.210Z,23.88
2017-08-23T12:17:54.148Z,23.93
2017-08-23T12:19:04.058Z,23.84
2017-08-23T12:20:14.151Z,23.8
2017-08-23T12:21:23.778Z,23.88
2017-08-23T12:22:33.084Z,23.9
2017-08-23T12:23:43.029Z,23.85
2017-08-23T12:24:52.966Z,23.8
2017-08-23T12:26:03.240Z,23.9
2017-08-23T12:27:13.180Z,23.84
2017-08-23T12:28:23.096Z,23.87
2017-08-23T12:29:32.791Z,23.85
2017-08-23T12:30:43.040Z,23.87
2017-08-23T12:31:53.121Z,23.85
2017-08-23T12:33:03.057Z,23.83
2017-08-23T12:34:12.706Z,23.84
2017-08-23T12:35:22.012Z,23.97
2017-08-23T12:36:32.284Z,23.88
2017-08-23T12:37:41.906Z,23.9
2017-08-23T12:38:51.525Z,23.87
2017-08-23T12:40:01.758Z,23.84
2017-08-23T12:41:11.673Z,23.88
2017-08-23T12:42:21.603Z,23.8
2017-08-23T12:43:31.094Z,23.87
2017-08-23T12:44:41.347Z,23.84
2017-08-23T12:45:51.278Z,23.9
2017-08-23T12:47:01.233Z,23.84
2017-08-23T12:48:11.192Z,23.94
2017-08-23T12:49:20.994Z,23.87
2017-08-23T12:50:30.598Z,23.95
2017-08-23T12:51:40.847Z,23.85
2017-08-23T12:52:51.149Z,23.87
2017-08-23T12:54:00.784Z,23.85
2017-08-23T12:55:11.063Z,23.84
2017-08-23T12:56:20.982Z,23.83
2017-08-23T12:57:30.934Z,23.85
2017-08-23T12:58:40.860Z,23.83
2017-08-23T12:59:51.107Z,23.94
2017-08-23T13:01:00.481Z,23.9
2017-08-23T13:02:10.095Z,23.9
2017-08-23T13:03:20.349Z,23.93
2017-08-23T13:04:30.263Z,23.93
2017-08-23T13:05:39.910Z,23.9
2017-08-23T13:06:49.373Z,23.93
2017-08-23T13:07:59.615Z,23.88
2017-08-23T13:09:09.584Z,23.87
2017-08-23T13:10:19.825Z,23.91
2017-08-23T13:11:30.063Z,23.9
2017-08-23T13:12:40.107Z,23.94
2017-08-23T13:13:50.362Z,23.95
2017-08-23T13:14:59.969Z,23.91
2017-08-23T13:16:09.597Z,23.9
2017-08-23T13:17:19.830Z,23.88
2017-08-23T13:18:30.086Z,23.95
2017-08-23T13:19:40.025Z,23.91
2017-08-23T13:20:50.851Z,23.93
2017-08-23T13:22:00.777Z,23.95
2017-08-23T13:23:10.425Z,23.93
2017-08-23T13:24:20.199Z,23.97
2017-08-23T13:25:30.135Z,23.91
2017-08-23T13:26:40.387Z,24
2017-08-23T13:27:50.326Z,23.97
2017-08-23T13:28:59.318Z,23.98
2017-08-23T13:30:09.545Z,23.95
2017-08-23T13:31:19.478Z,23.95
2017-08-23T13:32:29.736Z,23.94
2017-08-23T13:33:39.691Z,24
2017-08-23T13:34:49.449Z,23.91
2017-08-23T13:35:59.342Z,23.91
2017-08-23T13:37:09.001Z,23.98
2017-08-23T13:38:19.259Z,23.95
2017-08-23T13:39:28.896Z,23.94
2017-08-23T13:40:38.872Z,24.05
2017-08-23T13:41:49.489Z,24.05
2017-08-23T13:42:59.729Z,23.95
2017-08-23T13:44:09.361Z,23.94
2017-08-23T13:45:19.311Z,23.91
2017-08-23T13:46:28.932Z,24.05
2017-08-23T13:47:38.726Z,23.95
2017-08-23T13:48:48.732Z,23.97
2017-08-23T13:49:58.964Z,24.05
2017-08-23T13:51:07.969Z,24.05
2017-08-23T13:52:18.034Z,23.94
2017-08-23T13:53:27.945Z,23.94
2017-08-23T13:54:37.868Z,23.98
2017-08-23T13:55:48.111Z,23.93
2017-08-23T13:56:57.747Z,24
2017-08-23T13:58:08.000Z,24.05
2017-08-23T13:59:18.032Z,24.05
2017-08-23T14:00:27.029Z,23.95
2017-08-23T14:01:36.634Z,24.03
2017-08-23T14:02:47.280Z,24.02
2017-08-23T14:03:57.219Z,24.03
2017-08-23T14:05:07.242Z,24.02
2017-08-23T14:06:17.179Z,24.06
2017-08-23T14:07:27.405Z,24.08
2017-08-23T14:08:37.021Z,24.05
2017-08-23T14:09:46.656Z,24.06
2017-08-23T14:10:57.050Z,24.06
2017-08-23T14:12:06.972Z,24.03
2017-08-23T14:13:16.598Z,24.05
2017-08-23T14:14:26.230Z,24.03
2017-08-23T14:15:36.463Z,24.03
2017-08-23T14:16:46.421Z,24.06
2017-08-23T14:17:56.035Z,24.08
2017-08-23T14:19:05.962Z,24.02
2017-08-23T14:20:15.267Z,24.06
2017-08-23T14:21:25.257Z,24.09
2017-08-23T14:22:35.330Z,24.09
2017-08-23T14:23:45.659Z,24.03
2017-08-23T14:24:55.598Z,24.05
2017-08-23T14:26:05.373Z,24.03
2017-08-23T14:27:15.800Z,24.03
2017-08-23T14:28:25.736Z,24.08
2017-08-23T14:29:35.674Z,24.05
2017-08-23T14:30:45.297Z,24.1
2017-08-23T14:31:54.928Z,24.09
2017-08-23T14:33:04.313Z,24.09
2017-08-23T14:34:14.484Z,24.09
2017-08-23T14:35:24.108Z,24.08
2017-08-23T14:36:34.054Z,24.1
2017-08-23T14:37:44.331Z,24.12
2017-08-23T14:38:54.264Z,24.08
2017-08-23T14:40:04.578Z,24.13
2017-08-23T14:41:14.233Z,24.1
2017-08-23T14:42:24.506Z,24.06
2017-08-23T14:43:34.141Z,24.08
2017-08-23T14:44:44.078Z,24.06
2017-08-23T14:45:53.749Z,24.1
2017-08-23T14:47:03.386Z,24.1
2017-08-23T14:48:12.997Z,24.1
2017-08-23T14:49:22.322Z,24.13
2017-08-23T14:50:32.244Z,24.1
2017-08-23T14:51:42.025Z,24.12
2017-08-23T14:52:52.241Z,24.1
2017-08-23T14:54:02.474Z,24.1
2017-08-23T14:55:12.396Z,24.09
2017-08-23T14:56:22.310Z,24.1
2017-08-23T14:57:32.007Z,24.1
2017-08-23T14:58:42.249Z,24.1
2017-08-23T14:59:52.176Z,24.12
2017-08-23T15:01:01.797Z,24.12
2017-08-23T15:02:11.709Z,24.08
2017-08-23T15:03:21.183Z,24.1
2017-08-23T15:04:30.843Z,24.05
2017-08-23T15:05:40.466Z,24.06
2017-08-23T15:06:50.091Z,24.09
2017-08-23T15:08:00.347Z,24.15